Terminal Aerodrome Forecast
Issued by NWS

Home | Current Version | Previous Version | Text Only | Print | Product List | Glossary On
Versions: 1 2 3 4 5 6 7 8 9 10 11 12 13 14 15
000
FTUS43 KFGF 312324
TAFTVF
TAF
KTVF 312324Z 0100/0124 20009KT P6SM BKN070
     FM010100 15008KT P6SM VCSH BKN110
     FM010500 13006KT P6SM -SHRA OVC050
     FM010800 15006KT P6SM -SHRA OVC025
     FM011100 24008KT P6SM VCSH OVC015
     FM011200 27009KT P6SM VCSH OVC008
     FM012100 29014G22KT P6SM OVC015
      AMD LTD TO CLD VIS AND WIND=

USA.gov is the U.S. government's official web portal to all federal, state and local government web resources and services.